sensor_id;sensor_type;location;lat;lon;timestamp;P1;durP1;ratioP1;P2;durP2;ratioP2
40601;SDS011;26310;50.278;19.032;2023-04-24T04:50:58;7.70;;;4.83;;
40601;SDS011;26310;50.278;19.032;2023-04-24T04:56:01;7.73;;;4.20;;
40601;SDS011;26310;50.278;19.032;2023-04-24T05:01:04;8.10;;;4.30;;
40601;SDS011;26310;50.278;19.032;2023-04-24T05:06:07;5.50;;;4.30;;
40601;SDS011;26310;50.278;19.032;2023-04-24T05:11:09;5.33;;;3.37;;
40601;SDS011;26310;50.278;19.032;2023-04-24T05:16:12;6.23;;;4.33;;
40601;SDS011;26310;50.278;19.032;2023-04-24T05:21:15;6.17;;;4.20;;
40601;SDS011;26310;50.278;19.032;2023-04-24T05:26:18;6.27;;;4.50;;
40601;SDS011;26310;50.278;19.032;2023-04-24T05:31:21;10.40;;;4.50;;
40601;SDS011;26310;50.278;19.032;2023-04-24T05:36:24;8.03;;;4.90;;
40601;SDS011;26310;50.278;19.032;2023-04-24T05:41:26;11.87;;;5.10;;
40601;SDS011;26310;50.278;19.032;2023-04-24T05:46:29;7.30;;;4.70;;
40601;SDS011;26310;50.278;19.032;2023-04-24T05:51:32;9.27;;;4.77;;
40601;SDS011;26310;50.278;19.032;2023-04-24T05:56:35;6.97;;;4.30;;
40601;SDS011;26310;50.278;19.032;2023-04-24T06:01:38;6.90;;;4.53;;
40601;SDS011;26310;50.278;19.032;2023-04-24T06:06:41;11.23;;;5.90;;
40601;SDS011;26310;50.278;19.032;2023-04-24T06:11:43;10.10;;;5.27;;
40601;SDS011;26310;50.278;19.032;2023-04-24T06:16:46;12.37;;;5.00;;
40601;SDS011;26310;50.278;19.032;2023-04-24T06:21:51;12.47;;;4.50;;
40601;SDS011;26310;50.278;19.032;2023-04-24T06:26:53;10.20;;;3.77;;
40601;SDS011;26310;50.278;19.032;2023-04-24T06:31:58;10.47;;;4.10;;
40601;SDS011;26310;50.278;19.032;2023-04-24T06:37:01;5.53;;;3.40;;
40601;SDS011;26310;50.278;19.032;2023-04-24T06:42:04;7.80;;;3.73;;
40601;SDS011;26310;50.278;19.032;2023-04-24T06:47:07;10.00;;;3.77;;
40601;SDS011;26310;50.278;19.032;2023-04-24T06:52:15;4.80;;;2.97;;
40601;SDS011;26310;50.278;19.032;2023-04-24T06:57:18;4.70;;;2.80;;
40601;SDS011;26310;50.278;19.032;2023-04-24T07:02:21;2.97;;;2.30;;
40601;SDS011;26310;50.278;19.032;2023-04-24T07:07:24;5.20;;;2.87;;
40601;SDS011;26310;50.278;19.032;2023-04-24T07:12:28;2.90;;;2.40;;
40601;SDS011;26310;50.278;19.032;2023-04-24T07:17:31;4.53;;;2.87;;
40601;SDS011;26310;50.278;19.032;2023-04-24T07:22:34;3.33;;;2.40;;
40601;SDS011;26310;50.278;19.032;2023-04-24T07:27:36;4.83;;;2.73;;
40601;SDS011;26310;50.278;19.032;2023-04-24T07:32:39;2.60;;;2.40;;
40601;SDS011;26310;50.278;19.032;2023-04-24T07:37:42;4.23;;;2.93;;
40601;SDS011;26310;50.278;19.032;2023-04-24T07:42:47;3.90;;;3.00;;
40601;SDS011;26310;50.278;19.032;2023-04-24T07:47:50;4.63;;;2.63;;
40601;SDS011;26310;50.278;19.032;2023-04-24T07:52:53;3.63;;;2.23;;
40601;SDS011;26310;50.278;19.032;2023-04-24T07:57:56;3.33;;;2.17;;
40601;SDS011;26310;50.278;19.032;2023-04-24T08:02:59;2.30;;;2.07;;
40601;SDS011;26310;50.278;19.032;2023-04-24T08:08:02;3.60;;;2.17;;
40601;SDS011;26310;50.278;19.032;2023-04-24T08:13:05;3.70;;;2.30;;
40601;SDS011;26310;50.278;19.032;2023-04-24T08:18:08;6.37;;;2.17;;
40601;SDS011;26310;50.278;19.032;2023-04-24T08:23:13;2.80;;;2.20;;
40601;SDS011;26310;50.278;19.032;2023-04-24T08:28:16;2.80;;;2.17;;
40601;SDS011;26310;50.278;19.032;2023-04-24T08:33:22;4.00;;;2.30;;
40601;SDS011;26310;50.278;19.032;2023-04-24T08:38:25;3.00;;;2.10;;
40601;SDS011;26310;50.278;19.032;2023-04-24T08:43:28;3.37;;;2.23;;
40601;SDS011;26310;50.278;19.032;2023-04-24T08:48:31;2.57;;;1.90;;
40601;SDS011;26310;50.278;19.032;2023-04-24T08:53:34;3.17;;;2.30;;
40601;SDS011;26310;50.278;19.032;2023-04-24T08:58:37;3.07;;;2.27;;
40601;SDS011;26310;50.278;19.032;2023-04-24T09:03:40;1.77;;;1.63;;
40601;SDS011;26310;50.278;19.032;2023-04-24T09:08:44;2.07;;;1.30;;
40601;SDS011;26310;50.278;19.032;2023-04-24T09:13:47;2.53;;;1.77;;
40601;SDS011;26310;50.278;19.032;2023-04-24T09:18:50;2.90;;;2.50;;
40601;SDS011;26310;50.278;19.032;2023-04-24T09:23:57;2.10;;;1.70;;
40601;SDS011;26310;50.278;19.032;2023-04-24T09:29:01;2.43;;;1.53;;
40601;SDS011;26310;50.278;19.032;2023-04-24T09:34:05;3.40;;;2.37;;
40601;SDS011;26310;50.278;19.032;2023-04-24T09:39:09;3.13;;;2.00;;
40601;SDS011;26310;50.278;19.032;2023-04-24T09:44:16;3.37;;;2.30;;
40601;SDS011;26310;50.278;19.032;2023-04-24T09:49:24;5.47;;;2.70;;
40601;SDS011;26310;50.278;19.032;2023-04-24T09:54:27;9.82;;;2.83;;
40601;SDS011;26310;50.278;19.032;2023-04-24T09:59:31;6.67;;;3.03;;
40601;SDS011;26310;50.278;19.032;2023-04-24T10:04:36;3.47;;;2.87;;
40601;SDS011;26310;50.278;19.032;2023-04-24T10:09:39;4.43;;;2.47;;
40601;SDS011;26310;50.278;19.032;2023-04-24T10:14:43;3.60;;;2.90;;
40601;SDS011;26310;50.278;19.032;2023-04-24T10:19:49;3.77;;;2.23;;
40601;SDS011;26310;50.278;19.032;2023-04-24T10:24:52;2.67;;;2.43;;
40601;SDS011;26310;50.278;19.032;2023-04-24T10:29:55;5.90;;;2.55;;
40601;SDS011;26310;50.278;19.032;2023-04-24T10:34:58;11.68;;;3.03;;
40601;SDS011;26310;50.278;19.032;2023-04-24T10:40:01;3.28;;;2.75;;
40601;SDS011;26310;50.278;19.032;2023-04-24T10:45:05;3.97;;;2.22;;
40601;SDS011;26310;50.278;19.032;2023-04-24T10:50:09;2.53;;;2.15;;
40601;SDS011;26310;50.278;19.032;2023-04-24T10:55:13;2.88;;;1.80;;
40601;SDS011;26310;50.278;19.032;2023-04-24T11:00:20;2.65;;;2.10;;
40601;SDS011;26310;50.278;19.032;2023-04-24T11:05:49;3.47;;;2.70;;
40601;SDS011;26310;50.278;19.032;2023-04-24T11:10:58;2.58;;;2.38;;
40601;SDS011;26310;50.278;19.032;2023-04-24T11:16:11;2.38;;;2.08;;
40601;SDS011;26310;50.278;19.032;2023-04-24T11:21:44;4.80;;;2.63;;
40601;SDS011;26310;50.278;19.032;2023-04-24T11:37:37;3.83;;;2.50;;
40601;SDS011;26310;50.278;19.032;2023-04-24T11:42:44;4.70;;;2.50;;
40601;SDS011;26310;50.278;19.032;2023-04-24T11:47:48;3.03;;;2.50;;
40601;SDS011;26310;50.278;19.032;2023-04-24T11:52:51;3.80;;;2.80;;
40601;SDS011;26310;50.278;19.032;2023-04-24T11:57:58;4.30;;;3.00;;
40601;SDS011;26310;50.278;19.032;2023-04-24T12:03:09;5.53;;;2.93;;
40601;SDS011;26310;50.278;19.032;2023-04-24T12:08:26;5.60;;;2.67;;
40601;SDS011;26310;50.278;19.032;2023-04-24T12:13:30;4.03;;;2.47;;
40601;SDS011;26310;50.278;19.032;2023-04-24T12:18:33;3.60;;;3.17;;
40601;SDS011;26310;50.278;19.032;2023-04-24T12:23:37;3.70;;;2.37;;
40601;SDS011;26310;50.278;19.032;2023-04-24T12:28:40;3.43;;;2.93;;
40601;SDS011;26310;50.278;19.032;2023-04-24T12:33:42;5.03;;;3.00;;
40601;SDS011;26310;50.278;19.032;2023-04-24T12:38:46;2.17;;;1.97;;
40601;SDS011;26310;50.278;19.032;2023-04-24T12:43:52;4.83;;;2.87;;
40601;SDS011;26310;50.278;19.032;2023-04-24T12:48:56;3.77;;;2.43;;
40601;SDS011;26310;50.278;19.032;2023-04-24T12:54:00;2.83;;;2.43;;
40601;SDS011;26310;50.278;19.032;2023-04-24T12:59:02;3.83;;;2.30;;
40601;SDS011;26310;50.278;19.032;2023-04-24T13:04:06;5.63;;;2.43;;
40601;SDS011;26310;50.278;19.032;2023-04-24T13:09:08;2.07;;;1.67;;
40601;SDS011;26310;50.278;19.032;2023-04-24T13:14:12;1.77;;;1.57;;
40601;SDS011;26310;50.278;19.032;2023-04-24T13:19:15;5.03;;;2.00;;
40601;SDS011;26310;50.278;19.032;2023-04-24T13:24:18;2.23;;;1.80;;
40601;SDS011;26310;50.278;19.032;2023-04-24T13:29:21;2.97;;;2.00;;
40601;SDS011;26310;50.278;19.032;2023-04-24T13:34:25;2.77;;;2.03;;
40601;SDS011;26310;50.278;19.032;2023-04-24T13:39:28;3.30;;;2.27;;
40601;SDS011;26310;50.278;19.032;2023-04-24T13:44:31;2.30;;;2.00;;
40601;SDS011;26310;50.278;19.032;2023-04-24T13:49:34;3.90;;;2.33;;
40601;SDS011;26310;50.278;19.032;2023-04-24T13:54:36;3.67;;;2.83;;
40601;SDS011;26310;50.278;19.032;2023-04-24T13:59:39;4.00;;;2.77;;
40601;SDS011;26310;50.278;19.032;2023-04-24T14:04:42;4.87;;;3.17;;
40601;SDS011;26310;50.278;19.032;2023-04-24T14:09:45;2.97;;;2.47;;
40601;SDS011;26310;50.278;19.032;2023-04-24T14:14:48;3.63;;;2.60;;
40601;SDS011;26310;50.278;19.032;2023-04-24T14:19:51;7.43;;;4.00;;
40601;SDS011;26310;50.278;19.032;2023-04-24T14:24:57;3.47;;;3.17;;
40601;SDS011;26310;50.278;19.032;2023-04-24T14:30:00;6.27;;;3.80;;
40601;SDS011;26310;50.278;19.032;2023-04-24T14:35:03;5.00;;;3.30;;
40601;SDS011;26310;50.278;19.032;2023-04-24T14:40:08;4.20;;;2.87;;
40601;SDS011;26310;50.278;19.032;2023-04-24T14:45:31;3.43;;;2.33;;
40601;SDS011;26310;50.278;19.032;2023-04-24T14:50:33;4.57;;;2.70;;
40601;SDS011;26310;50.278;19.032;2023-04-24T14:55:37;5.53;;;3.10;;
40601;SDS011;26310;50.278;19.032;2023-04-24T15:00:40;5.83;;;2.77;;
40601;SDS011;26310;50.278;19.032;2023-04-24T15:05:43;2.33;;;2.00;;
40601;SDS011;26310;50.278;19.032;2023-04-24T15:10:46;3.40;;;2.27;;
40601;SDS011;26310;50.278;19.032;2023-04-24T15:15:49;2.73;;;2.30;;
40601;SDS011;26310;50.278;19.032;2023-04-24T15:20:52;3.80;;;2.70;;
40601;SDS011;26310;50.278;19.032;2023-04-24T15:25:55;3.97;;;2.70;;
40601;SDS011;26310;50.278;19.032;2023-04-24T15:30:58;4.03;;;2.60;;
40601;SDS011;26310;50.278;19.032;2023-04-24T15:36:01;3.67;;;2.57;;
40601;SDS011;26310;50.278;19.032;2023-04-24T15:41:03;4.27;;;2.97;;
40601;SDS011;26310;50.278;19.032;2023-04-24T15:46:07;3.43;;;2.40;;
40601;SDS011;26310;50.278;19.032;2023-04-24T15:51:10;3.67;;;2.43;;
40601;SDS011;26310;50.278;19.032;2023-04-24T15:56:12;5.63;;;2.77;;
40601;SDS011;26310;50.278;19.032;2023-04-24T16:01:15;2.97;;;2.30;;
40601;SDS011;26310;50.278;19.032;2023-04-24T16:06:18;4.17;;;2.40;;
40601;SDS011;26310;50.278;19.032;2023-04-24T16:11:21;3.20;;;2.53;;
40601;SDS011;26310;50.278;19.032;2023-04-24T16:16:24;3.00;;;2.27;;
40601;SDS011;26310;50.278;19.032;2023-04-24T16:21:27;2.57;;;2.10;;
40601;SDS011;26310;50.278;19.032;2023-04-24T16:26:30;4.67;;;2.70;;
40601;SDS011;26310;50.278;19.032;2023-04-24T16:31:32;3.57;;;2.67;;
40601;SDS011;26310;50.278;19.032;2023-04-24T16:36:35;3.03;;;2.40;;
40601;SDS011;26310;50.278;19.032;2023-04-24T16:41:38;2.90;;;2.50;;
40601;SDS011;26310;50.278;19.032;2023-04-24T16:46:41;3.77;;;2.90;;
40601;SDS011;26310;50.278;19.032;2023-04-24T16:51:44;5.33;;;2.80;;
40601;SDS011;26310;50.278;19.032;2023-04-24T16:56:47;7.93;;;3.23;;
40601;SDS011;26310;50.278;19.032;2023-04-24T17:01:49;3.30;;;2.63;;
40601;SDS011;26310;50.278;19.032;2023-04-24T17:06:52;3.40;;;2.67;;
40601;SDS011;26310;50.278;19.032;2023-04-24T17:11:55;5.13;;;3.47;;
40601;SDS011;26310;50.278;19.032;2023-04-24T17:16:58;4.33;;;3.17;;
40601;SDS011;26310;50.278;19.032;2023-04-24T17:22:01;4.57;;;3.37;;
40601;SDS011;26310;50.278;19.032;2023-04-24T17:27:07;4.60;;;3.20;;
40601;SDS011;26310;50.278;19.032;2023-04-24T17:32:16;6.10;;;3.63;;
40601;SDS011;26310;50.278;19.032;2023-04-24T17:37:18;3.53;;;3.00;;
40601;SDS011;26310;50.278;19.032;2023-04-24T17:42:23;4.83;;;3.40;;
40601;SDS011;26310;50.278;19.032;2023-04-24T17:47:26;4.17;;;2.93;;
40601;SDS011;26310;50.278;19.032;2023-04-24T17:52:31;5.37;;;4.33;;
40601;SDS011;26310;50.278;19.032;2023-04-24T17:57:34;3.50;;;3.10;;
40601;SDS011;26310;50.278;19.032;2023-04-24T18:02:37;7.03;;;3.57;;
40601;SDS011;26310;50.278;19.032;2023-04-24T18:07:40;6.40;;;4.03;;
40601;SDS011;26310;50.278;19.032;2023-04-24T18:12:43;5.10;;;3.27;;
40601;SDS011;26310;50.278;19.032;2023-04-24T18:17:47;6.10;;;3.63;;
40601;SDS011;26310;50.278;19.032;2023-04-24T18:22:50;5.93;;;4.10;;
40601;SDS011;26310;50.278;19.032;2023-04-24T18:27:53;6.77;;;5.03;;
40601;SDS011;26310;50.278;19.032;2023-04-24T18:32:58;6.83;;;4.10;;
40601;SDS011;26310;50.278;19.032;2023-04-24T18:38:01;9.47;;;4.43;;
40601;SDS011;26310;50.278;19.032;2023-04-24T18:43:04;7.63;;;4.93;;
40601;SDS011;26310;50.278;19.032;2023-04-24T18:48:07;7.40;;;4.43;;
40601;SDS011;26310;50.278;19.032;2023-04-24T18:53:10;11.37;;;4.50;;
40601;SDS011;26310;50.278;19.032;2023-04-24T18:58:21;9.00;;;6.10;;
40601;SDS011;26310;50.278;19.032;2023-04-24T19:03:25;11.00;;;6.07;;
40601;SDS011;26310;50.278;19.032;2023-04-24T19:08:28;12.07;;;6.03;;
40601;SDS011;26310;50.278;19.032;2023-04-24T19:13:31;10.30;;;5.90;;
40601;SDS011;26310;50.278;19.032;2023-04-24T19:18:34;8.93;;;6.40;;
40601;SDS011;26310;50.278;19.032;2023-04-24T19:23:37;11.47;;;6.07;;
40601;SDS011;26310;50.278;19.032;2023-04-24T19:28:41;12.40;;;6.97;;
40601;SDS011;26310;50.278;19.032;2023-04-24T19:33:44;13.30;;;6.67;;
40601;SDS011;26310;50.278;19.032;2023-04-24T19:38:50;12.13;;;8.17;;
40601;SDS011;26310;50.278;19.032;2023-04-24T19:43:53;13.23;;;8.10;;
40601;SDS011;26310;50.278;19.032;2023-04-24T19:48:55;14.17;;;8.07;;
40601;SDS011;26310;50.278;19.032;2023-04-24T19:53:58;16.27;;;8.37;;
40601;SDS011;26310;50.278;19.032;2023-04-24T19:59:01;15.77;;;8.73;;
40601;SDS011;26310;50.278;19.032;2023-04-24T20:04:04;15.00;;;9.70;;
40601;SDS011;26310;50.278;19.032;2023-04-24T20:09:12;18.17;;;10.10;;
40601;SDS011;26310;50.278;19.032;2023-04-24T20:14:15;14.27;;;8.07;;
40601;SDS011;26310;50.278;19.032;2023-04-24T20:19:18;18.00;;;11.40;;
40601;SDS011;26310;50.278;19.032;2023-04-24T20:24:22;13.67;;;8.93;;
40601;SDS011;26310;50.278;19.032;2023-04-24T20:29:25;16.50;;;10.33;;
40601;SDS011;26310;50.278;19.032;2023-04-24T20:34:28;14.37;;;10.07;;
40601;SDS011;26310;50.278;19.032;2023-04-24T20:39:31;18.60;;;11.10;;
40601;SDS011;26310;50.278;19.032;2023-04-24T20:44:34;16.60;;;10.80;;
40601;SDS011;26310;50.278;19.032;2023-04-24T20:49:36;20.17;;;10.17;;
40601;SDS011;26310;50.278;19.032;2023-04-24T20:54:39;17.53;;;10.63;;
40601;SDS011;26310;50.278;19.032;2023-04-24T20:59:42;19.67;;;10.63;;
40601;SDS011;26310;50.278;19.032;2023-04-24T21:04:45;18.93;;;10.93;;
40601;SDS011;26310;50.278;19.032;2023-04-24T21:09:48;16.33;;;10.00;;
40601;SDS011;26310;50.278;19.032;2023-04-24T21:14:51;17.10;;;10.07;;
40601;SDS011;26310;50.278;19.032;2023-04-24T21:19:54;18.67;;;10.73;;
40601;SDS011;26310;50.278;19.032;2023-04-24T21:24:57;27.20;;;11.63;;
40601;SDS011;26310;50.278;19.032;2023-04-24T21:30:00;22.50;;;9.70;;
40601;SDS011;26310;50.278;19.032;2023-04-24T21:35:03;15.67;;;9.20;;
40601;SDS011;26310;50.278;19.032;2023-04-24T21:40:06;16.00;;;9.93;;
40601;SDS011;26310;50.278;19.032;2023-04-24T21:45:12;14.13;;;8.73;;
40601;SDS011;26310;50.278;19.032;2023-04-24T21:50:15;9.77;;;6.20;;
40601;SDS011;26310;50.278;19.032;2023-04-24T21:55:17;5.57;;;3.80;;
40601;SDS011;26310;50.278;19.032;2023-04-24T22:00:22;3.90;;;3.00;;
40601;SDS011;26310;50.278;19.032;2023-04-24T22:05:25;3.80;;;2.53;;
40601;SDS011;26310;50.278;19.032;2023-04-24T22:10:28;2.87;;;1.70;;
40601;SDS011;26310;50.278;19.032;2023-04-24T22:15:31;2.57;;;1.47;;
40601;SDS011;26310;50.278;19.032;2023-04-24T22:20:33;2.00;;;1.70;;
40601;SDS011;26310;50.278;19.032;2023-04-24T22:25:36;2.33;;;1.80;;
40601;SDS011;26310;50.278;19.032;2023-04-24T22:30:39;4.67;;;1.73;;
40601;SDS011;26310;50.278;19.032;2023-04-24T22:35:42;2.17;;;1.60;;
40601;SDS011;26310;50.278;19.032;2023-04-24T22:40:45;2.43;;;2.10;;
40601;SDS011;26310;50.278;19.032;2023-04-24T22:45:48;2.63;;;2.40;;
40601;SDS011;26310;50.278;19.032;2023-04-24T22:50:51;2.40;;;1.90;;
40601;SDS011;26310;50.278;19.032;2023-04-24T22:55:55;2.93;;;1.70;;
40601;SDS011;26310;50.278;19.032;2023-04-24T23:00:58;2.03;;;1.83;;
40601;SDS011;26310;50.278;19.032;2023-04-24T23:06:01;2.50;;;2.10;;
40601;SDS011;26310;50.278;19.032;2023-04-24T23:11:03;4.77;;;3.03;;
40601;SDS011;26310;50.278;19.032;2023-04-24T23:16:06;5.13;;;4.07;;
40601;SDS011;26310;50.278;19.032;2023-04-24T23:21:09;5.93;;;3.57;;
40601;SDS011;26310;50.278;19.032;2023-04-24T23:26:12;6.67;;;3.60;;
40601;SDS011;26310;50.278;19.032;2023-04-24T23:31:15;7.83;;;4.13;;
40601;SDS011;26310;50.278;19.032;2023-04-24T23:36:18;6.87;;;4.23;;
40601;SDS011;26310;50.278;19.032;2023-04-24T23:41:21;15.37;;;4.93;;
